Time;durP1;ratioP1;P1;durP2;ratioP2;P2;SDS_P1;SDS_P2;PMS_P1;PMS_P2;Temp;Humidity;BMP_temperature;BMP_pressure;BME280_temperature;BME280_humidity;BME280_pressure;Samples;Min_cycle;Max_cycle;Signal;HPM_P1;HPM_P2
2022/08/05 00:01:59;;;;;;;8.00;2.58;;;;;;;20.29;88.76;101377.69;20968986;28;20040;-63
2022/08/05 00:12:31;;;;;;;8.77;2.38;;;;;;;19.92;95.59;101392.75;20964909;28;20419;-64
2022/08/05 00:22:53;;;;;;;10.43;3.30;;;;;;;19.38;100.00;101330.94;20967469;28;20549;-65
2022/08/05 00:33:20;;;;;;;7.75;3.88;;;;;;;19.27;100.00;101358.38;20968435;28;20040;-64
2022/08/05 00:44:01;;;;;;;7.85;3.90;;;;;;;19.55;100.00;101267.53;20965119;28;20045;-64
2022/08/05 00:54:23;;;;;;;7.75;4.45;;;;;;;19.32;100.00;101217.78;20960284;28;20040;-64
2022/08/05 01:04:50;;;;;;;7.95;4.68;;;;;;;19.22;100.00;101196.66;20986539;28;20477;-64
2022/08/05 01:15:16;;;;;;;8.38;4.40;;;;;;;19.01;100.00;101225.09;20968688;28;20633;-65
2022/08/05 01:26:18;;;;;;;8.55;4.10;;;;;;;19.13;100.00;101268.91;20968724;28;20040;-64
2022/08/05 01:36:43;;;;;;;7.75;4.40;;;;;;;19.06;100.00;101265.16;20954433;28;20044;-64
2022/08/05 01:47:09;;;;;;;8.45;4.70;;;;;;;18.93;100.00;101263.78;20959127;28;20048;-64
2022/08/05 01:57:37;;;;;;;9.80;5.45;;;;;;;18.85;100.00;101290.91;20994416;28;20040;-64
2022/08/05 02:08:20;;;;;;;13.23;6.20;;;;;;;18.91;100.00;101282.44;20964733;28;20405;-64
2022/08/05 02:18:55;;;;;;;11.98;6.55;;;;;;;18.81;100.00;101252.53;20958633;28;20160;-64
2022/08/05 02:29:21;;;;;;;14.73;6.63;;;;;;;18.58;100.00;101259.09;20973391;28;20585;-64
2022/08/05 02:39:47;;;;;;;11.77;6.03;;;;;;;18.78;100.00;101273.13;20950946;28;20051;-64
2022/08/05 02:50:14;;;;;;;10.27;5.95;;;;;;;18.68;100.00;101290.78;20950097;28;20469;-64
2022/08/05 03:00:39;;;;;;;13.90;5.93;;;;;;;18.46;100.00;101276.03;20946765;28;20037;-63
2022/08/05 03:11:20;;;;;;;9.85;6.30;;;;;;;18.63;100.00;101262.13;20953057;28;20056;-64
2022/08/05 03:22:02;;;;;;;11.45;6.03;;;;;;;18.79;100.00;101280.88;20957299;28;20508;-64
2022/08/05 03:32:37;;;;;;;13.23;5.95;;;;;;;18.70;100.00;101284.38;20969411;28;20052;-64
2022/08/05 03:42:59;;;;;;;9.93;5.00;;;;;;;18.45;100.00;101282.28;20968150;28;20384;-64
2022/08/05 03:53:42;;;;;;;9.75;4.53;;;;;;;18.66;100.00;101301.47;20972055;28;20089;-63
2022/08/05 04:04:25;;;;;;;12.80;5.13;;;;;;;18.32;100.00;101309.09;20968375;28;20512;-64
2022/08/05 04:14:48;;;;;;;7.00;4.43;;;;;;;18.53;100.00;101308.00;20984652;28;20037;-63
2022/08/05 04:25:09;;;;;;;10.60;4.82;;;;;;;18.54;100.00;101302.56;20981627;28;20523;-64
2022/08/05 04:35:31;;;;;;;10.43;4.75;;;;;;;18.63;100.00;101293.00;20966675;28;20130;-64
2022/08/05 04:46:13;;;;;;;6.78;4.60;;;;;;;18.57;100.00;101294.38;20968573;28;20044;-64
2022/08/05 04:56:48;;;;;;;7.75;4.45;;;;;;;18.52;100.00;101291.31;20979456;28;20538;-65
2022/08/05 05:07:15;;;;;;;8.57;4.43;;;;;;;18.66;100.00;101319.97;20959135;28;20140;-65
2022/08/05 05:17:39;;;;;;;9.55;4.53;;;;;;;18.74;100.00;101301.63;20964142;28;20053;-64
2022/08/05 05:28:18;;;;;;;9.67;4.03;;;;;;;18.68;100.00;101315.38;20961986;28;20094;-64
2022/08/05 05:38:41;;;;;;;10.20;3.75;;;;;;;18.74;100.00;101312.19;20957832;28;20302;-64
2022/08/05 05:49:03;;;;;;;5.75;3.45;;;;;;;18.67;100.00;101304.97;20957812;28;20056;-64
2022/08/05 05:59:42;;;;;;;11.80;3.72;;;;;;;18.79;100.00;101330.25;20953799;28;20055;-64
2022/08/05 06:10:05;;;;;;;6.60;3.50;;;;;;;18.59;100.00;101291.59;20953841;28;20045;-64
2022/08/05 06:20:30;;;;;;;8.95;3.05;;;;;;;18.53;100.00;101319.41;20944742;28;20049;-64
2022/08/05 06:30:52;;;;;;;9.95;4.15;;;;;;;18.48;100.00;101344.53;20953847;28;20041;-64
2022/08/05 06:41:15;;;;;;;8.80;3.53;;;;;;;18.33;100.00;101359.09;20946518;28;20048;-63
2022/08/05 06:51:37;;;;;;;6.43;3.78;;;;;;;18.75;100.00;101348.22;20946559;28;20055;-65
2022/08/05 07:02:01;;;;;;;6.78;3.38;;;;;;;18.71;100.00;101370.56;20949892;28;20060;-66
2022/08/05 07:23:09;;;;;;;7.32;4.13;;;;;;;18.54;100.00;101359.84;20966425;28;20078;-69
2022/08/05 07:33:46;;;;;;;7.93;4.28;;;;;;;18.43;100.00;101387.22;20955339;28;20044;-68
2022/08/05 07:44:08;;;;;;;7.45;3.70;;;;;;;18.43;100.00;101396.91;20965862;28;20067;-68
2022/08/05 07:54:39;;;;;;;;;;;;;;;18.49;100.00;101406.97;20957291;28;20053;-68
2022/08/05 08:05:08;;;;;;;12.13;4.03;;;;;;;18.59;100.00;101406.00;20979032;28;19928;-68
2022/08/05 08:15:31;;;;;;;9.43;3.67;;;;;;;18.49;100.00;101394.56;20945114;28;20056;-68
2022/08/05 08:26:13;;;;;;;10.90;4.07;;;;;;;18.58;100.00;101393.78;20949893;28;20056;-68
2022/08/05 08:36:34;;;;;;;6.95;3.70;;;;;;;18.54;100.00;101389.72;20923586;28;20048;-68
2022/08/05 08:47:14;;;;;;;7.35;3.15;;;;;;;18.67;100.00;101406.16;20939046;28;20209;-68
2022/08/05 08:57:57;;;;;;;7.53;3.90;;;;;;;18.54;100.00;101410.84;20941922;28;1124077;-68
2022/08/05 09:08:21;;;;;;;6.20;3.63;;;;;;;18.85;100.00;101412.44;20953823;28;20404;-68
2022/08/05 09:18:50;;;;;;;7.55;3.97;;;;;;;19.02;100.00;101422.34;20948005;28;20417;-68
2022/08/05 09:29:16;;;;;;;4.95;3.10;;;;;;;18.99;100.00;101417.34;20959005;28;20044;-68
2022/08/05 09:39:39;;;;;;;5.20;3.42;;;;;;;19.14;100.00;101421.28;20965242;28;20052;-68
2022/08/05 09:50:12;;;;;;;4.07;2.90;;;;;;;19.16;100.00;101408.75;20948759;28;20106;-67
2022/08/05 10:00:58;;;;;;;4.10;3.20;;;;;;;19.35;100.00;101398.19;20963518;28;20044;-67
2022/08/05 10:11:20;;;;;;;6.85;1.90;;;;;;;19.43;98.67;101428.19;20947375;28;20037;-67
2022/08/05 10:21:44;;;;;;;8.18;2.15;;;;;;;19.51;97.51;101435.44;20944597;28;20044;-67
2022/08/05 10:32:06;;;;;;;1.98;1.55;;;;;;;19.58;95.32;101431.25;20958947;28;20457;-68
2022/08/05 10:42:52;;;;;;;5.68;1.20;;;;;;;19.97;93.62;101454.06;20942638;28;20041;-67
2022/08/05 10:53:50;;;;;;;5.55;2.40;;;;;;;20.12;90.32;101442.88;20938773;28;20451;-67
2022/08/05 11:04:17;;;;;;;7.32;1.90;;;;;;;20.34;92.78;101457.56;20942681;28;20045;-66
2022/08/05 11:14:42;;;;;;;9.63;3.77;;;;;;;20.75;87.98;101474.66;20946606;28;20071;-67
2022/08/05 11:25:34;;;;;;;3.83;1.27;;;;;;;20.69;83.21;101490.31;20945835;28;20047;-66
2022/08/05 11:36:18;;;;;;;6.63;1.50;;;;;;;20.67;89.36;101489.63;20939826;28;20094;-66
2022/08/05 11:47:00;;;;;;;2.25;1.25;;;;;;;21.10;84.57;101495.97;20938362;28;20048;-66
2022/08/05 11:57:43;;;;;;;4.55;1.30;;;;;;;21.45;82.62;101485.34;20960266;28;20501;-65
2022/08/05 12:08:25;;;;;;;3.25;1.33;;;;;;;21.92;77.96;101505.38;20948920;28;20063;-65
2022/08/05 12:18:47;;;;;;;2.35;0.90;;;;;;;21.78;74.76;101492.66;20962374;28;20055;-65
2022/08/05 12:29:17;;;;;;;4.13;1.25;;;;;;;22.16;72.73;101508.19;20952191;28;20044;-64
2022/08/05 12:39:43;;;;;;;3.13;1.00;;;;;;;22.42;71.03;101509.88;20955034;28;20044;-65
2022/08/05 12:50:14;;;;;;;1.05;0.65;;;;;;;21.95;69.52;101513.03;20947975;28;20049;-65
2022/08/05 13:00:41;;;;;;;1.40;0.63;;;;;;;21.92;69.67;101531.91;20954687;28;20127;-66
2022/08/05 13:11:27;;;;;;;0.80;0.40;;;;;;;22.19;61.84;101545.91;20957393;28;20052;-65
2022/08/05 13:22:09;;;;;;;1.50;0.35;;;;;;;22.40;53.04;101559.69;20957444;28;20401;-68
2022/08/05 13:32:32;;;;;;;0.43;0.30;;;;;;;22.21;50.76;101594.38;20944251;28;20547;-67
2022/08/05 13:43:02;;;;;;;0.57;0.20;;;;;;;22.11;51.17;101600.81;20954484;28;20142;-66
2022/08/05 13:53:33;;;;;;;1.25;0.50;;;;;;;22.41;52.00;101630.47;20941406;28;20036;-66
2022/08/05 14:14:49;;;;;;;0.52;0.30;;;;;;;21.65;52.47;101657.59;20964920;28;20658;-66
2022/08/05 14:25:13;;;;;;;1.90;0.30;;;;;;;21.75;50.49;101671.66;20949130;28;20033;-66
2022/08/05 14:35:42;;;;;;;1.10;0.20;;;;;;;21.68;47.37;101698.97;20947408;28;20076;-66
2022/08/05 14:46:12;;;;;;;1.07;0.40;;;;;;;21.23;54.14;101702.47;20950012;28;20084;-66
2022/08/05 14:56:34;;;;;;;0.45;0.20;;;;;;;21.34;51.11;101716.41;20973571;28;20056;-67
2022/08/05 15:06:58;;;;;;;4.35;0.30;;;;;;;20.98;50.35;101730.47;20950970;28;20041;-66
2022/08/05 15:17:20;;;;;;;3.70;0.40;;;;;;;21.39;49.81;101748.66;20940665;28;20432;-66
2022/08/05 15:28:01;;;;;;;1.40;0.25;;;;;;;21.25;47.24;101769.50;20958116;28;20052;-65
2022/08/05 15:38:23;;;;;;;0.73;0.20;;;;;;;20.93;49.56;101775.16;20962239;28;20045;-65
2022/08/05 15:48:56;;;;;;;1.20;0.20;;;;;;;20.86;49.64;101789.94;20990264;28;20558;-65
2022/08/05 15:59:31;;;;;;;0.75;0.20;;;;;;;20.63;50.00;101793.84;20970548;28;20053;-65
2022/08/05 16:09:53;;;;;;;0.75;0.20;;;;;;;21.06;49.08;101796.06;20969544;28;20707;-67
2022/08/05 16:20:14;;;;;;;2.53;0.30;;;;;;;20.26;55.54;101799.09;20961001;28;20094;-66
2022/08/05 16:30:40;;;;;;;2.10;0.30;;;;;;;20.62;55.61;101804.56;20952101;28;20055;-66
2022/08/05 16:41:03;;;;;;;0.47;0.30;;;;;;;21.42;54.65;101823.50;20956506;28;20068;-66
2022/08/05 16:51:46;;;;;;;0.70;0.40;;;;;;;21.04;53.09;101828.03;20962076;28;20056;-65
2022/08/05 17:02:11;;;;;;;0.90;0.28;;;;;;;20.78;53.78;101839.31;20956995;28;20393;-66
2022/08/05 17:12:34;;;;;;;0.93;0.30;;;;;;;20.51;51.88;101836.50;20950674;28;20052;-65
2022/08/05 17:23:12;;;;;;;2.20;1.02;;;;;;;20.50;52.52;101840.97;20960225;28;20072;-65
2022/08/05 17:33:55;;;;;;;1.25;0.20;;;;;;;20.75;51.68;101840.44;20955064;28;20049;-65
2022/08/05 17:44:18;;;;;;;6.50;0.40;;;;;;;20.70;51.83;101853.25;20936732;28;20052;-67
2022/08/05 17:54:52;;;;;;;1.63;0.30;;;;;;;20.49;51.75;101865.81;20930018;28;20033;-66
2022/08/05 18:05:15;;;;;;;1.35;0.30;;;;;;;20.28;53.30;101879.25;20951806;28;20464;-66
2022/08/05 18:15:38;;;;;;;3.63;0.50;;;;;;;19.65;54.96;101890.09;20956330;28;20040;-65
2022/08/05 18:26:01;;;;;;;1.25;0.30;;;;;;;19.54;55.80;101900.75;20951689;28;20041;-66
2022/08/05 18:36:25;;;;;;;1.30;0.30;;;;;;;19.52;54.32;101921.19;20950178;28;20052;-66
2022/08/05 18:46:48;;;;;;;3.40;0.32;;;;;;;19.22;54.79;101931.69;20950002;28;20072;-67
2022/08/05 18:57:12;;;;;;;3.55;0.43;;;;;;;18.92;56.81;101943.94;20954406;28;20052;-66
2022/08/05 19:07:37;;;;;;;3.40;0.50;;;;;;;18.79;58.52;101948.53;20964355;28;20052;-65
2022/08/05 19:18:07;;;;;;;1.15;0.40;;;;;;;18.56;60.24;101968.00;20951049;28;20056;-64
2022/08/05 19:28:41;;;;;;;4.97;0.70;;;;;;;18.26;61.27;101981.00;20949377;28;20587;-64
2022/08/05 19:39:03;;;;;;;1.83;0.40;;;;;;;18.38;62.00;101990.63;20957065;28;20413;-66
2022/08/05 19:49:25;;;;;;;0.88;0.40;;;;;;;18.32;62.23;102012.19;20956653;28;20079;-66
2022/08/05 19:59:47;;;;;;;2.10;0.57;;;;;;;17.91;64.70;102026.84;20952428;28;20432;-65
2022/08/05 20:10:22;;;;;;;1.58;0.30;;;;;;;17.74;65.91;102037.84;20948682;28;20097;-68
2022/08/05 20:20:46;;;;;;;5.97;0.60;;;;;;;17.58;67.18;102047.88;20958544;28;20045;-68
2022/08/05 20:31:07;;;;;;;8.20;0.68;;;;;;;17.49;67.90;102056.44;20943791;28;20585;-69
2022/08/05 20:41:29;;;;;;;2.95;0.57;;;;;;;17.28;68.94;102071.16;20955758;28;20140;-68
2022/08/05 20:52:04;;;;;;;2.47;0.70;;;;;;;17.29;70.00;102080.78;20960516;28;20029;-70
2022/08/05 21:02:27;;;;;;;2.95;0.40;;;;;;;17.00;71.89;102089.06;20946572;28;20098;-65
2022/08/05 21:12:49;;;;;;;3.28;0.57;;;;;;;16.85;73.30;102101.53;20948827;28;20123;-66
2022/08/05 21:23:30;;;;;;;3.25;0.60;;;;;;;16.94;72.94;102115.84;20940319;28;20823;-65
2022/08/05 21:33:59;;;;;;;3.10;0.60;;;;;;;16.77;74.15;102113.56;20925368;28;20048;-65
2022/08/05 21:44:21;;;;;;;1.30;0.63;;;;;;;16.87;72.85;102118.09;20984002;28;20053;-66
2022/08/05 21:54:47;;;;;;;2.63;0.68;;;;;;;16.47;74.98;102116.50;20962146;28;20040;-66
2022/08/05 22:05:15;;;;;;;1.17;0.50;;;;;;;16.37;75.22;102124.28;20969620;28;20047;-65
2022/08/05 22:15:37;;;;;;;2.28;0.65;;;;;;;16.43;74.48;102120.31;20958080;28;20052;-65
2022/08/05 22:37:01;;;;;;;1.73;0.68;;;;;;;16.10;75.58;102137.47;20948543;28;20052;-68
2022/08/05 22:47:25;;;;;;;2.15;0.68;;;;;;;15.83;77.47;102139.28;20956479;28;20060;-65
2022/08/05 22:57:52;;;;;;;2.80;0.80;;;;;;;16.16;76.08;102146.75;20955374;28;20085;-65
2022/08/05 23:08:13;;;;;;;2.08;0.70;;;;;;;15.71;77.76;102153.25;20957713;28;20044;-65
2022/08/05 23:18:35;;;;;;;2.55;0.70;;;;;;;15.93;77.51;102160.56;20954379;28;20705;-65
2022/08/05 23:28:58;;;;;;;1.60;0.70;;;;;;;15.74;78.17;102160.06;20957623;28;20051;-67
2022/08/05 23:39:21;;;;;;;1.88;0.73;;;;;;;15.40;79.10;102171.09;20970778;28;20041;-67
2022/08/05 23:50:04;;;;;;;2.13;0.60;;;;;;;15.29;79.82;102176.13;20966357;28;20052;-65
